createdAt,value
2022-11-13T00:01:26.733Z,11.43
2022-11-13T00:03:55.226Z,10.68
2022-11-13T00:06:23.718Z,10.60
2022-11-13T00:08:56.883Z,9.70
2022-11-13T00:11:25.287Z,10.32
2022-11-13T00:13:53.673Z,9.52
2022-11-13T00:16:22.887Z,9.18
2022-11-13T00:18:51.331Z,10.38
2022-11-13T00:21:21.951Z,10.68
2022-11-13T00:23:51.578Z,8.95
2022-11-13T00:26:23.432Z,9.57
2022-11-13T00:28:54.873Z,10.43
2022-11-13T00:31:23.820Z,9.02
2022-11-13T00:34:14.060Z,10.13
2022-11-13T00:36:41.052Z,10.98
2022-11-13T00:39:10.440Z,11.57
2022-11-13T00:41:40.244Z,11.57
2022-11-13T00:44:08.938Z,12.27
2022-11-13T00:46:37.302Z,12.40
2022-11-13T00:49:05.861Z,12.10
2022-11-13T00:51:34.459Z,12.43
2022-11-13T00:54:02.909Z,13.23
2022-11-13T00:56:31.338Z,13.32
2022-11-13T00:59:01.079Z,14.38
2022-11-13T01:01:29.726Z,13.05
2022-11-13T01:03:58.496Z,13.50
2022-11-13T01:06:28.961Z,13.30
2022-11-13T01:08:58.550Z,13.05
2022-11-13T01:11:29.914Z,11.95
2022-11-13T01:14:00.114Z,14.43
2022-11-13T01:16:30.269Z,12.85
2022-11-13T01:18:58.968Z,12.80
2022-11-13T01:21:29.265Z,12.27
2022-11-13T01:23:58.065Z,12.15
2022-11-13T01:26:29.733Z,10.65
2022-11-13T01:29:00.997Z,11.15
2022-11-13T01:31:31.754Z,11.13
2022-11-13T01:34:00.244Z,11.48
2022-11-13T01:36:30.377Z,10.38
2022-11-13T01:38:58.960Z,10.48
2022-11-13T01:41:29.986Z,9.48
2022-11-13T01:44:01.419Z,9.40
2022-11-13T01:46:32.560Z,9.25
2022-11-13T01:49:14.240Z,11.02
2022-11-13T01:51:48.793Z,9.80
2022-11-13T01:54:22.690Z,9.38
2022-11-13T01:56:52.036Z,9.15
2022-11-13T01:59:26.933Z,10.13
2022-11-13T02:01:57.274Z,9.38
2022-11-13T02:04:26.138Z,9.50
2022-11-13T02:07:01.648Z,9.65
2022-11-13T02:09:34.838Z,8.07
2022-11-13T02:12:03.434Z,10.00
2022-11-13T02:14:34.209Z,9.00
2022-11-13T02:17:07.308Z,9.25
2022-11-13T02:19:40.767Z,9.25
2022-11-13T02:22:17.979Z,8.88
2022-11-13T02:24:54.444Z,10.40
2022-11-13T02:27:37.657Z,7.97
2022-11-13T02:30:23.587Z,8.82
2022-11-13T02:32:55.713Z,8.95
2022-11-13T02:35:28.486Z,9.48
2022-11-13T02:37:59.252Z,8.40
2022-11-13T02:40:30.492Z,10.10
2022-11-13T02:42:58.833Z,8.90
2022-11-13T02:45:27.227Z,9.63
2022-11-13T02:47:55.594Z,9.30
2022-11-13T02:50:24.611Z,9.40
2022-11-13T02:52:53.108Z,9.43
2022-11-13T02:55:21.663Z,9.80
2022-11-13T02:57:51.414Z,7.43
2022-11-13T03:00:20.519Z,9.73
2022-11-13T03:02:50.066Z,10.38
2022-11-13T03:05:18.741Z,9.25
2022-11-13T03:07:47.090Z,10.20
2022-11-13T03:10:16.000Z,10.40
2022-11-13T03:12:44.425Z,9.90
2022-11-13T03:15:14.263Z,12.38
2022-11-13T03:17:42.655Z,11.05
2022-11-13T03:20:11.572Z,12.75
2022-11-13T03:22:39.926Z,11.48
2022-11-13T03:25:10.937Z,12.25
2022-11-13T03:27:39.624Z,12.30
2022-11-13T03:30:10.055Z,13.32
2022-11-13T03:32:39.761Z,11.63
2022-11-13T03:35:09.654Z,11.65
2022-11-13T03:37:38.010Z,14.48
2022-11-13T03:40:08.298Z,12.45
2022-11-13T03:42:36.602Z,15.40
2022-11-13T03:45:05.695Z,13.30
2022-11-13T03:47:34.307Z,13.02
2022-11-13T03:50:04.068Z,14.60
2022-11-13T03:52:32.450Z,12.70
2022-11-13T03:55:00.792Z,13.05
2022-11-13T03:57:29.144Z,12.88
2022-11-13T03:59:57.491Z,13.27
2022-11-13T04:02:25.863Z,14.90
2022-11-13T04:04:54.238Z,14.98
2022-11-13T04:07:24.015Z,14.68
2022-11-13T04:09:52.351Z,16.10
2022-11-13T04:12:20.715Z,15.95
2022-11-13T04:14:49.085Z,15.85
2022-11-13T04:17:17.529Z,14.80
2022-11-13T04:19:45.881Z,16.50
2022-11-13T04:22:14.290Z,15.38
2022-11-13T04:24:44.018Z,15.15
2022-11-13T04:27:12.393Z,15.77
2022-11-13T04:29:40.772Z,16.65
2022-11-13T04:32:09.324Z,16.75
2022-11-13T04:34:37.696Z,15.52
2022-11-13T04:37:06.084Z,16.80
2022-11-13T04:39:34.457Z,16.83
2022-11-13T04:42:21.342Z,17.42
2022-11-13T04:44:49.700Z,18.02
2022-11-13T04:47:18.074Z,18.33
2022-11-13T04:49:46.425Z,14.93
2022-11-13T04:52:14.928Z,16.23
2022-11-13T04:54:43.293Z,16.13
2022-11-13T04:57:13.024Z,17.15
2022-11-13T04:59:41.425Z,16.55
2022-11-13T05:02:09.838Z,16.77
2022-11-13T05:04:38.290Z,15.35
2022-11-13T05:07:06.744Z,14.32
2022-11-13T05:09:35.161Z,15.60
2022-11-13T05:12:05.086Z,16.60
2022-11-13T05:14:35.247Z,15.27
2022-11-13T05:17:03.760Z,15.23
2022-11-13T05:19:33.704Z,15.43
2022-11-13T05:22:02.909Z,16.27
2022-11-13T05:24:31.566Z,15.32
2022-11-13T05:26:59.966Z,15.25
2022-11-13T05:29:28.296Z,15.85
2022-11-13T05:31:58.011Z,14.43
2022-11-13T05:34:26.288Z,15.77
2022-11-13T05:36:54.637Z,14.10
2022-11-13T05:39:23.110Z,16.95
2022-11-13T05:41:51.458Z,15.75
2022-11-13T05:44:19.795Z,17.33
2022-11-13T05:46:48.162Z,15.57
2022-11-13T05:49:17.991Z,18.73
2022-11-13T05:51:46.357Z,18.92
2022-11-13T05:54:14.861Z,15.85
2022-11-13T05:56:43.261Z,16.63
2022-11-13T05:59:11.759Z,13.95
2022-11-13T06:01:41.798Z,12.35
2022-11-13T06:04:11.047Z,12.80
2022-11-13T06:06:40.872Z,14.40
2022-11-13T06:09:09.447Z,12.75
2022-11-13T06:11:37.786Z,11.88
2022-11-13T06:14:06.193Z,11.85
2022-11-13T06:16:37.778Z,11.70
2022-11-13T06:19:09.036Z,15.18
2022-11-13T06:21:41.667Z,10.82
2022-11-13T06:24:13.513Z,11.98
2022-11-13T06:26:42.252Z,11.38
2022-11-13T06:29:13.716Z,11.13
2022-11-13T06:31:42.082Z,11.80
2022-11-13T06:34:10.408Z,10.20
2022-11-13T06:36:40.812Z,11.88
2022-11-13T06:39:10.780Z,11.85
2022-11-13T06:41:40.758Z,12.68
2022-11-13T06:44:09.438Z,11.70
2022-11-13T06:46:38.019Z,12.63
2022-11-13T06:49:06.361Z,13.35
2022-11-13T06:51:34.709Z,12.23
2022-11-13T06:54:04.682Z,11.07
2022-11-13T06:56:33.088Z,12.38
2022-11-13T06:59:01.881Z,12.50
2022-11-13T07:01:32.504Z,12.93
2022-11-13T07:04:00.898Z,12.73
2022-11-13T07:06:29.228Z,11.95
2022-11-13T07:08:57.667Z,12.75
2022-11-13T07:11:27.391Z,11.15
2022-11-13T07:13:55.754Z,10.68
2022-11-13T07:16:24.118Z,12.10
2022-11-13T07:18:53.600Z,11.15
2022-11-13T07:21:23.991Z,11.43
2022-11-13T07:23:52.679Z,12.57
2022-11-13T07:26:21.406Z,14.07
2022-11-13T07:28:51.318Z,13.80
2022-11-13T07:31:19.945Z,12.40
2022-11-13T07:33:51.505Z,11.88
2022-11-13T07:36:20.015Z,11.55
2022-11-13T07:38:48.398Z,12.43
2022-11-13T07:41:16.775Z,12.82
2022-11-13T07:43:45.192Z,11.98
2022-11-13T07:46:15.015Z,10.65
2022-11-13T07:48:43.447Z,13.52
2022-11-13T07:51:11.826Z,13.05
2022-11-13T07:53:40.158Z,12.98
2022-11-13T07:56:09.564Z,11.13
2022-11-13T07:58:37.982Z,13.27
2022-11-13T08:01:08.014Z,11.40
2022-11-13T08:03:37.831Z,12.82
2022-11-13T08:06:08.794Z,12.20
2022-11-13T08:08:37.281Z,13.73
2022-11-13T08:11:07.504Z,14.13
2022-11-13T08:13:36.630Z,12.02
2022-11-13T08:16:06.042Z,14.15
2022-11-13T08:18:34.675Z,14.73
2022-11-13T08:21:10.592Z,13.73
2022-11-13T08:23:43.528Z,13.68
2022-11-13T08:26:12.355Z,11.02
2022-11-13T08:28:41.385Z,12.10
2022-11-13T08:31:13.477Z,10.48
2022-11-13T08:33:43.154Z,11.75
2022-11-13T08:36:13.235Z,11.20
2022-11-13T08:38:41.609Z,12.73
2022-11-13T08:41:10.172Z,12.27
2022-11-13T08:43:38.544Z,13.82
2022-11-13T08:46:07.550Z,14.57
2022-11-13T08:48:35.991Z,12.52
2022-11-13T08:51:04.893Z,13.48
2022-11-13T08:53:34.623Z,12.85
2022-11-13T08:56:03.419Z,12.68
2022-11-13T08:58:32.200Z,11.82
2022-11-13T09:01:05.228Z,11.20
2022-11-13T09:03:36.223Z,11.50
2022-11-13T09:06:07.569Z,12.93
2022-11-13T09:08:37.299Z,13.05
2022-11-13T09:11:06.276Z,12.00
2022-11-13T09:13:41.207Z,12.55
2022-11-13T09:16:12.327Z,10.23
2022-11-13T09:18:40.717Z,11.90
2022-11-13T09:21:09.042Z,13.18
2022-11-13T09:23:38.939Z,13.40
2022-11-13T09:26:07.345Z,12.85
2022-11-13T09:28:35.831Z,11.70
2022-11-13T09:31:06.159Z,13.93
2022-11-13T09:33:34.808Z,13.88
2022-11-13T09:36:03.550Z,11.68
2022-11-13T09:38:32.251Z,12.60
2022-11-13T09:41:06.433Z,12.70
2022-11-13T09:43:41.340Z,13.88
2022-11-13T09:46:18.382Z,12.25
2022-11-13T09:48:54.025Z,12.82
2022-11-13T09:51:27.502Z,10.02
2022-11-13T09:53:55.960Z,10.70
2022-11-13T09:56:34.562Z,11.15
2022-11-13T09:59:16.651Z,12.50
2022-11-13T10:01:58.015Z,11.18
2022-11-13T10:04:41.232Z,12.63
2022-11-13T10:07:30.079Z,11.27
2022-11-13T10:10:18.514Z,12.40
2022-11-13T10:12:51.031Z,10.90
2022-11-13T10:15:19.740Z,12.63
2022-11-13T10:17:56.649Z,11.73
2022-11-13T10:20:34.099Z,12.82
2022-11-13T10:23:14.297Z,14.23
2022-11-13T10:25:44.757Z,12.25
2022-11-13T10:31:07.190Z,13.38
2022-11-13T10:33:35.637Z,13.00
2022-11-13T10:36:17.409Z,12.13
2022-11-13T10:38:50.313Z,13.30
2022-11-13T10:41:21.373Z,13.48
2022-11-13T10:43:57.753Z,13.63
2022-11-13T10:46:29.995Z,13.02
2022-11-13T10:48:58.459Z,13.18
2022-11-13T10:51:29.842Z,13.57
2022-11-13T10:54:00.160Z,10.93
2022-11-13T10:56:30.659Z,12.40
2022-11-13T10:59:11.386Z,12.15
2022-11-13T11:01:40.624Z,11.48
2022-11-13T11:04:14.851Z,10.90
2022-11-13T11:09:33.686Z,9.77
2022-11-13T11:12:30.149Z,11.48
2022-11-13T11:15:11.523Z,8.45
2022-11-13T11:17:46.368Z,8.70
2022-11-13T11:20:41.344Z,8.73
2022-11-13T11:23:28.239Z,8.48
2022-11-13T11:26:01.109Z,8.75
2022-11-13T11:28:37.128Z,8.15
2022-11-13T11:31:20.794Z,6.35
2022-11-13T11:33:54.737Z,8.73
2022-11-13T11:36:32.606Z,9.13
2022-11-13T11:39:14.318Z,9.50
2022-11-13T11:41:47.488Z,7.88
2022-11-13T11:44:23.648Z,8.02
2022-11-13T11:46:53.417Z,6.55
2022-11-13T11:49:24.115Z,7.72
2022-11-13T11:52:10.670Z,6.97
2022-11-13T11:54:43.900Z,6.75
2022-11-13T11:57:36.636Z,6.25
2022-11-13T12:00:10.943Z,7.57
2022-11-13T12:03:31.153Z,6.93
2022-11-13T12:06:15.858Z,7.03
2022-11-13T12:08:51.851Z,7.60
2022-11-13T12:11:30.500Z,8.10
2022-11-13T12:14:11.240Z,6.97
2022-11-13T12:16:50.295Z,7.65
2022-11-13T12:19:32.681Z,7.30
2022-11-13T12:22:12.144Z,7.72
2022-11-13T12:25:01.706Z,7.85
2022-11-13T12:27:38.250Z,6.60
2022-11-13T12:30:17.738Z,7.40
2022-11-13T12:33:17.954Z,7.15
2022-11-13T12:35:51.902Z,7.00
2022-11-13T12:38:34.671Z,6.88
2022-11-13T12:41:15.839Z,8.75
2022-11-13T12:44:06.241Z,6.97
2022-11-13T12:46:37.718Z,9.65
2022-11-13T12:49:33.228Z,8.00
2022-11-13T12:52:06.519Z,7.00
2022-11-13T12:54:37.721Z,7.13
2022-11-13T12:57:20.969Z,6.05
2022-11-13T12:59:53.880Z,8.00
2022-11-13T13:02:48.266Z,8.60
2022-11-13T13:05:31.671Z,8.43
2022-11-13T13:08:27.287Z,9.32
2022-11-13T13:11:13.650Z,7.63
2022-11-13T13:13:52.911Z,8.00
2022-11-13T13:16:27.546Z,8.50
2022-11-13T13:19:08.726Z,9.15
2022-11-13T13:21:45.549Z,9.02
2022-11-13T13:24:34.874Z,8.60
2022-11-13T13:27:03.537Z,8.98
2022-11-13T13:29:34.639Z,9.32
2022-11-13T13:32:17.982Z,7.82
2022-11-13T13:35:01.954Z,8.57
2022-11-13T13:37:40.852Z,9.25
2022-11-13T13:40:29.102Z,10.55
2022-11-13T13:43:21.054Z,9.00
2022-11-13T13:46:02.877Z,11.75
2022-11-13T13:48:33.219Z,9.18
2022-11-13T13:51:03.163Z,11.23
2022-11-13T13:53:35.391Z,8.30
2022-11-13T13:56:11.111Z,10.15
2022-11-13T13:58:40.886Z,8.50
2022-11-13T14:01:19.344Z,9.77
2022-11-13T14:03:48.443Z,11.70
2022-11-13T14:06:23.385Z,9.40
2022-11-13T14:08:51.802Z,9.55
2022-11-13T14:11:26.987Z,11.40
2022-11-13T14:13:55.466Z,10.52
2022-11-13T14:16:23.910Z,10.75
2022-11-13T14:18:52.279Z,11.07
2022-11-13T14:21:25.071Z,11.13
2022-11-13T14:23:55.499Z,11.60
2022-11-13T14:26:25.381Z,12.43
2022-11-13T14:28:59.178Z,12.45
2022-11-13T14:31:35.431Z,9.98
2022-11-13T14:34:10.684Z,12.77
2022-11-13T14:36:40.952Z,13.15
2022-11-13T14:39:23.308Z,12.60
2022-11-13T14:41:57.787Z,13.02
2022-11-13T14:44:31.915Z,10.88
2022-11-13T14:47:03.407Z,11.20
2022-11-13T14:49:34.685Z,12.43
2022-11-13T14:52:05.342Z,11.05
2022-11-13T14:55:08.290Z,14.20
2022-11-13T14:57:26.446Z,11.93
2022-11-13T14:59:55.180Z,13.18
2022-11-13T15:02:24.180Z,11.93
2022-11-13T15:04:53.307Z,11.38
2022-11-13T15:07:31.822Z,12.63
2022-11-13T15:10:01.156Z,12.23
2022-11-13T15:12:31.156Z,12.45
2022-11-13T15:15:00.186Z,11.00
2022-11-13T15:17:28.910Z,11.73
2022-11-13T15:19:57.852Z,12.95
2022-11-13T15:22:28.825Z,12.90
2022-11-13T15:24:58.692Z,12.02
2022-11-13T15:27:28.292Z,14.07
2022-11-13T15:29:59.051Z,13.02
2022-11-13T15:32:29.087Z,11.85
2022-11-13T15:34:57.656Z,13.18
2022-11-13T15:37:26.880Z,9.57
2022-11-13T15:39:55.271Z,11.80
2022-11-13T15:42:31.080Z,11.63
2022-11-13T15:45:01.928Z,12.95
2022-11-13T15:47:36.301Z,12.75
2022-11-13T15:50:16.203Z,24.38
2022-11-13T15:52:49.121Z,12.93
2022-11-13T15:55:26.689Z,14.52
2022-11-13T15:57:56.620Z,13.98
2022-11-13T16:00:29.391Z,11.40
2022-11-13T16:03:00.104Z,14.55
2022-11-13T16:05:30.110Z,12.75
2022-11-13T16:07:59.290Z,12.98
2022-11-13T16:10:28.339Z,15.05
2022-11-13T16:12:57.342Z,12.65
2022-11-13T16:15:27.994Z,13.20
2022-11-13T16:17:59.029Z,15.05
2022-11-13T16:20:28.912Z,13.10
2022-11-13T16:22:58.803Z,14.38
2022-11-13T16:25:28.251Z,15.50
2022-11-13T16:27:57.749Z,13.40
2022-11-13T16:30:29.389Z,13.30
2022-11-13T16:32:58.980Z,13.07
2022-11-13T16:35:29.991Z,12.85
2022-11-13T16:37:58.599Z,17.08
2022-11-13T16:40:29.666Z,13.63
2022-11-13T16:42:59.274Z,15.35
2022-11-13T16:45:31.964Z,14.63
2022-11-13T16:48:00.799Z,14.32
2022-11-13T16:50:34.000Z,15.10
2022-11-13T16:53:03.094Z,15.23
2022-11-13T16:55:33.085Z,15.23
2022-11-13T16:58:03.355Z,14.40
2022-11-13T17:00:34.521Z,15.48
2022-11-13T17:03:04.443Z,18.33
2022-11-13T17:05:33.402Z,16.65
2022-11-13T17:08:03.284Z,14.25
2022-11-13T17:10:36.596Z,15.68
2022-11-13T17:13:09.124Z,13.73
2022-11-13T17:15:48.946Z,14.52
2022-11-13T17:18:19.317Z,14.45
2022-11-13T17:20:52.707Z,15.88
2022-11-13T17:23:22.272Z,16.05
2022-11-13T17:25:51.491Z,17.05
2022-11-13T17:28:21.273Z,16.00
2022-11-13T17:30:56.435Z,18.58
2022-11-13T17:33:30.472Z,15.82
2022-11-13T17:36:01.544Z,17.15
2022-11-13T17:38:31.582Z,16.77
2022-11-13T17:41:08.459Z,15.88
2022-11-13T17:43:38.384Z,15.68
2022-11-13T17:46:13.200Z,14.38
2022-11-13T17:48:42.916Z,14.45
2022-11-13T17:51:15.274Z,16.17
2022-11-13T17:53:46.288Z,16.02
2022-11-13T17:56:16.595Z,13.75
2022-11-13T17:58:47.604Z,14.52
2022-11-13T18:01:23.336Z,14.32
2022-11-13T18:03:58.953Z,15.02
2022-11-13T18:06:29.361Z,12.95
2022-11-13T18:08:59.248Z,17.42
2022-11-13T18:11:30.530Z,14.15
2022-11-13T18:14:00.085Z,15.68
2022-11-13T18:16:35.490Z,14.82
2022-11-13T18:19:08.906Z,15.38
2022-11-13T18:21:44.141Z,18.83
2022-11-13T18:24:18.457Z,15.75
2022-11-13T18:26:49.157Z,16.15
2022-11-13T18:29:19.096Z,12.85
2022-11-13T18:31:49.666Z,15.35
2022-11-13T18:34:20.158Z,14.98
2022-11-13T18:36:50.434Z,19.40
2022-11-13T18:39:19.503Z,15.95
2022-11-13T18:41:48.716Z,15.00
2022-11-13T18:44:19.189Z,13.40
2022-11-13T18:46:50.691Z,15.15
2022-11-13T18:49:22.015Z,12.80
2022-11-13T18:51:52.059Z,15.85
2022-11-13T18:54:22.323Z,13.27
2022-11-13T18:56:53.385Z,14.10
2022-11-13T18:59:23.207Z,14.27
2022-11-13T19:01:55.163Z,15.27
2022-11-13T19:04:27.569Z,16.00
2022-11-13T19:07:00.029Z,17.73
2022-11-13T19:09:29.919Z,15.73
2022-11-13T19:11:59.609Z,17.23
2022-11-13T19:14:31.829Z,21.30
2022-11-13T19:17:04.051Z,12.32
2022-11-13T19:19:35.525Z,14.73
2022-11-13T19:22:05.586Z,17.73
2022-11-13T19:24:41.643Z,16.83
2022-11-13T19:27:15.034Z,15.57
2022-11-13T19:29:46.092Z,17.92
2022-11-13T19:32:17.566Z,17.13
2022-11-13T19:34:48.278Z,14.52
2022-11-13T19:37:19.421Z,17.45
2022-11-13T19:39:49.931Z,15.93
2022-11-13T19:42:20.870Z,13.15
2022-11-13T19:44:50.495Z,16.27
2022-11-13T19:47:23.424Z,16.00
2022-11-13T19:49:56.792Z,14.23
2022-11-13T19:52:27.289Z,16.42
2022-11-13T19:54:57.350Z,16.55
2022-11-13T19:57:27.032Z,14.77
2022-11-13T19:59:56.147Z,14.68
2022-11-13T20:02:34.445Z,14.98
2022-11-13T20:05:04.498Z,16.75
2022-11-13T20:07:34.033Z,16.33
2022-11-13T20:10:04.295Z,14.88
2022-11-13T20:12:34.098Z,14.43
2022-11-13T20:15:04.734Z,12.20
2022-11-13T20:17:37.428Z,15.25
2022-11-13T20:20:10.846Z,15.82
2022-11-13T20:22:40.636Z,16.40
2022-11-13T20:25:11.605Z,14.50
2022-11-13T20:27:46.039Z,14.13
2022-11-13T20:30:17.982Z,15.35
2022-11-13T20:32:49.347Z,15.68
2022-11-13T20:35:20.858Z,16.40
2022-11-13T20:37:51.912Z,15.93
2022-11-13T20:40:25.920Z,14.43
2022-11-13T20:42:56.232Z,13.95
2022-11-13T20:45:27.415Z,14.23
2022-11-13T20:47:58.631Z,14.70
2022-11-13T20:50:27.926Z,14.27
2022-11-13T20:52:58.278Z,14.38
2022-11-13T20:55:27.814Z,15.57
2022-11-13T20:57:58.937Z,13.38
2022-11-13T21:00:28.459Z,16.92
2022-11-13T21:03:00.735Z,13.38
2022-11-13T21:05:30.226Z,13.48
2022-11-13T21:07:59.358Z,16.95
2022-11-13T21:10:28.929Z,13.63
2022-11-13T21:12:58.812Z,14.15
2022-11-13T21:15:27.772Z,13.93
2022-11-13T21:17:59.470Z,12.23
2022-11-13T21:20:28.741Z,14.50
2022-11-13T21:23:00.422Z,12.05
2022-11-13T21:25:30.020Z,15.18
2022-11-13T21:28:00.572Z,13.60
2022-11-13T21:30:29.251Z,13.13
2022-11-13T21:33:01.900Z,14.02
2022-11-13T21:35:31.910Z,15.93
2022-11-13T21:38:00.440Z,14.45
2022-11-13T21:40:29.413Z,13.60
2022-11-13T21:42:58.134Z,17.08
2022-11-13T21:45:26.732Z,16.08
2022-11-13T21:47:55.159Z,16.10
2022-11-13T21:50:24.965Z,16.30
2022-11-13T21:52:53.417Z,14.90
2022-11-13T21:55:21.897Z,14.40
2022-11-13T21:57:50.269Z,13.20
2022-11-13T22:00:19.646Z,13.52
2022-11-13T22:02:48.086Z,13.32
2022-11-13T22:05:16.870Z,15.50
2022-11-13T22:07:46.626Z,14.40
2022-11-13T22:10:15.367Z,13.60
2022-11-13T22:12:43.713Z,13.95
2022-11-13T22:15:12.880Z,13.45
2022-11-13T22:17:41.858Z,14.93
2022-11-13T22:20:11.375Z,14.35
2022-11-13T22:22:39.739Z,14.13
2022-11-13T22:25:10.458Z,29.33
2022-11-13T22:27:38.825Z,15.00
2022-11-13T22:30:08.933Z,13.35
2022-11-13T22:32:37.322Z,14.15
2022-11-13T22:35:06.990Z,15.27
2022-11-13T22:37:35.361Z,15.55
2022-11-13T22:40:03.776Z,15.48
2022-11-13T22:42:33.537Z,13.65
2022-11-13T22:45:04.418Z,13.40
2022-11-13T22:47:39.231Z,12.80
2022-11-13T22:50:08.451Z,12.85
2022-11-13T22:52:36.968Z,13.80
2022-11-13T22:55:06.445Z,14.07
2022-11-13T22:57:36.224Z,13.20
2022-11-13T23:00:09.466Z,13.90
2022-11-13T23:02:39.879Z,14.20
2022-11-13T23:05:11.655Z,12.45
2022-11-13T23:07:40.095Z,17.67
2022-11-13T23:10:11.141Z,15.30
2022-11-13T23:12:41.282Z,12.80
2022-11-13T23:15:11.504Z,14.38
2022-11-13T23:17:39.876Z,14.65
2022-11-13T23:20:10.339Z,15.35
2022-11-13T23:22:38.801Z,18.65
2022-11-13T23:25:08.292Z,14.57
2022-11-13T23:27:36.702Z,14.63
2022-11-13T23:30:08.370Z,15.15
2022-11-13T23:32:36.805Z,16.85
2022-11-13T23:35:05.593Z,14.88
2022-11-13T23:37:33.980Z,15.52
2022-11-13T23:40:02.372Z,14.77
2022-11-13T23:42:53.539Z,14.35
2022-11-13T23:45:20.533Z,14.07
2022-11-13T23:47:48.890Z,14.60
2022-11-13T23:50:17.480Z,15.52
2022-11-13T23:52:45.920Z,14.98
2022-11-13T23:55:14.262Z,12.70
2022-11-13T23:57:42.896Z,13.00
